createdAt,value
2018-01-19T00:01:55.753Z,22.20
2018-01-19T00:04:23.521Z,20.85
2018-01-19T00:06:51.869Z,18.55
2018-01-19T00:09:19.734Z,23.10
2018-01-19T00:11:47.301Z,20.98
2018-01-19T00:14:14.939Z,23.10
2018-01-19T00:16:42.544Z,18.08
2018-01-19T00:19:10.483Z,16.67
2018-01-19T00:21:38.196Z,18.27
2018-01-19T00:24:05.844Z,19.80
2018-01-19T00:26:33.500Z,17.37
2018-01-19T00:29:01.118Z,19.23
2018-01-19T00:31:28.733Z,16.73
2018-01-19T00:33:56.347Z,16.90
2018-01-19T00:36:24.154Z,17.60
2018-01-19T00:38:51.792Z,16.70
2018-01-19T00:41:19.434Z,17.15
2018-01-19T00:43:47.071Z,19.80
2018-01-19T00:46:14.795Z,18.85
2018-01-19T00:48:42.464Z,18.17
2018-01-19T00:51:10.565Z,15.15
2018-01-19T00:53:38.158Z,18.20
2018-01-19T00:56:05.835Z,16.55
2018-01-19T00:58:33.670Z,14.10
2018-01-19T01:01:01.310Z,13.40
2018-01-19T01:03:29.050Z,14.00
2018-01-19T01:05:56.695Z,13.05
2018-01-19T01:08:24.385Z,12.70
2018-01-19T01:10:52.962Z,11.45
2018-01-19T01:13:20.604Z,12.60
2018-01-19T01:15:48.274Z,9.82
2018-01-19T01:18:15.888Z,12.60
2018-01-19T01:20:43.479Z,15.20
2018-01-19T01:23:11.115Z,13.40
2018-01-19T01:25:38.713Z,11.23
2018-01-19T01:28:06.359Z,11.70
2018-01-19T01:30:34.084Z,11.40
2018-01-19T01:33:01.824Z,11.95
2018-01-19T01:35:29.495Z,11.45
2018-01-19T01:37:57.173Z,11.85
2018-01-19T01:40:24.830Z,11.70
2018-01-19T01:42:52.418Z,12.50
2018-01-19T01:45:20.094Z,12.07
2018-01-19T01:47:47.735Z,11.85
2018-01-19T01:50:15.452Z,12.07
2018-01-19T01:52:43.159Z,11.73
2018-01-19T01:55:10.785Z,14.63
2018-01-19T01:57:38.411Z,13.90
2018-01-19T02:00:07.319Z,13.90
2018-01-19T02:02:34.946Z,12.98
2018-01-19T02:05:02.651Z,13.40
2018-01-19T02:07:30.439Z,12.35
2018-01-19T02:09:58.146Z,11.85
2018-01-19T02:12:25.770Z,12.52
2018-01-19T02:14:53.498Z,13.38
2018-01-19T02:17:21.120Z,13.50
2018-01-19T02:19:48.814Z,12.05
2018-01-19T02:22:17.185Z,12.95
2018-01-19T02:24:44.850Z,12.20
2018-01-19T02:27:12.506Z,11.18
2018-01-19T02:29:40.193Z,11.38
2018-01-19T02:32:08.098Z,10.75
2018-01-19T02:34:36.572Z,10.15
2018-01-19T02:37:04.281Z,12.70
2018-01-19T02:39:31.903Z,12.65
2018-01-19T02:41:59.827Z,12.23
2018-01-19T02:44:27.490Z,11.85
2018-01-19T02:46:55.180Z,10.95
2018-01-19T02:49:22.808Z,10.75
2018-01-19T02:51:50.639Z,9.18
2018-01-19T02:54:18.302Z,9.80
2018-01-19T02:56:45.873Z,10.57
2018-01-19T02:59:13.476Z,10.35
2018-01-19T03:01:41.118Z,8.95
2018-01-19T03:04:08.781Z,9.90
2018-01-19T03:06:36.958Z,9.05
2018-01-19T03:09:04.906Z,9.98
2018-01-19T03:11:33.107Z,10.35
2018-01-19T03:14:00.678Z,10.38
2018-01-19T03:16:28.443Z,10.18
2018-01-19T03:18:56.920Z,8.93
2018-01-19T03:21:24.555Z,9.50
2018-01-19T03:23:53.024Z,7.70
2018-01-19T03:26:20.632Z,8.75
2018-01-19T03:28:48.244Z,9.32
2018-01-19T03:31:16.093Z,8.30
2018-01-19T03:33:43.804Z,7.57
2018-01-19T03:36:11.467Z,8.27
2018-01-19T03:38:39.115Z,8.38
2018-01-19T03:41:07.705Z,8.93
2018-01-19T03:43:35.324Z,6.97
2018-01-19T03:46:02.969Z,9.23
2018-01-19T03:48:30.659Z,7.90
2018-01-19T03:50:58.273Z,8.80
2018-01-19T03:53:25.878Z,8.75
2018-01-19T03:55:53.634Z,8.68
2018-01-19T03:58:21.542Z,7.95
2018-01-19T04:00:49.229Z,8.85
2018-01-19T04:03:16.901Z,8.98
2018-01-19T04:05:44.594Z,8.73
2018-01-19T04:08:12.255Z,9.05
2018-01-19T04:10:39.902Z,9.68
2018-01-19T04:13:07.599Z,9.40
2018-01-19T04:15:35.280Z,8.63
2018-01-19T04:18:04.002Z,9.40
2018-01-19T04:20:31.680Z,17.10
2018-01-19T04:22:59.374Z,13.13
2018-01-19T04:25:27.053Z,11.05
2018-01-19T04:27:54.732Z,9.63
2018-01-19T04:30:22.532Z,10.75
2018-01-19T04:32:50.252Z,9.70
2018-01-19T04:35:17.966Z,7.85
2018-01-19T04:37:45.714Z,9.98
2018-01-19T04:40:13.432Z,10.52
2018-01-19T04:42:42.327Z,11.40
2018-01-19T04:45:10.102Z,10.35
2018-01-19T04:50:10.350Z,11.10
2018-01-19T04:52:38.009Z,10.32
2018-01-19T04:55:05.717Z,11.23
2018-01-19T04:57:33.719Z,10.52
2018-01-19T05:00:02.271Z,9.30
2018-01-19T05:02:29.960Z,9.25
2018-01-19T05:04:57.620Z,9.27
2018-01-19T05:07:25.275Z,10.05
2018-01-19T05:09:52.901Z,11.05
2018-01-19T05:12:20.929Z,10.88
2018-01-19T05:14:48.763Z,12.70
2018-01-19T05:17:16.869Z,11.82
2018-01-19T05:19:44.669Z,11.40
2018-01-19T05:22:12.727Z,11.35
2018-01-19T05:24:40.539Z,11.60
2018-01-19T05:27:08.222Z,11.30
2018-01-19T05:29:36.147Z,10.93
2018-01-19T05:32:05.131Z,13.15
2018-01-19T05:34:33.064Z,12.60
2018-01-19T05:37:01.012Z,12.80
2018-01-19T05:39:28.765Z,13.60
2018-01-19T05:41:56.446Z,13.15
2018-01-19T05:44:24.186Z,17.75
2018-01-19T05:49:27.750Z,15.52
2018-01-19T05:51:56.030Z,15.75
2018-01-19T05:54:23.711Z,14.13
2018-01-19T05:56:51.462Z,15.90
2018-01-19T05:59:19.936Z,16.73
2018-01-19T06:01:49.362Z,14.50
2018-01-19T06:04:17.088Z,12.40
2018-01-19T06:06:45.024Z,11.48
2018-01-19T06:09:12.748Z,11.25
2018-01-19T06:11:42.051Z,11.93
2018-01-19T06:14:09.694Z,22.77
2018-01-19T06:16:38.918Z,22.67
2018-01-19T06:19:06.589Z,18.95
2018-01-19T06:21:35.887Z,17.70
2018-01-19T06:24:03.650Z,18.25
2018-01-19T06:26:31.375Z,15.80
2018-01-19T06:28:59.392Z,14.05
2018-01-19T06:31:27.069Z,13.77
2018-01-19T06:33:54.723Z,14.30
2018-01-19T06:36:22.477Z,38.70
2018-01-19T06:38:50.106Z,13.47
2018-01-19T06:41:17.749Z,47.77
2018-01-19T06:43:45.584Z,27.60
2018-01-19T06:46:13.178Z,30.70
2018-01-19T06:48:40.765Z,17.10
2018-01-19T06:51:08.686Z,11.83
2018-01-19T06:53:36.282Z,19.30
2018-01-19T06:56:04.797Z,16.83
2018-01-19T06:58:32.412Z,19.67
2018-01-19T07:01:00.121Z,21.70
2018-01-19T07:03:27.770Z,20.23
2018-01-19T07:05:55.342Z,22.50
2018-01-19T07:08:22.944Z,27.90
2018-01-19T07:10:50.576Z,31.40
2018-01-19T07:13:18.185Z,27.70
2018-01-19T07:15:45.768Z,30.40
2018-01-19T07:18:14.354Z,39.80
2018-01-19T07:20:42.912Z,51.03
2018-01-19T07:23:10.573Z,47.47
2018-01-19T07:25:38.270Z,48.83
2018-01-19T07:28:05.974Z,48.63
2018-01-19T07:30:33.680Z,49.73
2018-01-19T07:33:01.336Z,41.63
2018-01-19T07:35:29.024Z,33.27
2018-01-19T07:37:56.648Z,25.10
2018-01-19T07:40:24.466Z,29.90
2018-01-19T07:42:52.254Z,30.30
2018-01-19T07:45:20.652Z,21.27
2018-01-19T07:47:48.425Z,18.90
2018-01-19T07:50:16.091Z,17.27
2018-01-19T07:52:43.778Z,19.30
2018-01-19T07:55:11.412Z,18.37
2018-01-19T07:57:39.097Z,17.97
2018-01-19T08:00:07.028Z,18.80
2018-01-19T08:02:34.865Z,19.50
2018-01-19T08:05:02.459Z,19.03
2018-01-19T08:07:30.107Z,23.17
2018-01-19T08:09:57.705Z,20.37
2018-01-19T08:12:25.333Z,20.60
2018-01-19T08:14:53.276Z,19.07
2018-01-19T08:17:20.976Z,18.50
2018-01-19T08:19:51.954Z,17.73
2018-01-19T08:22:24.506Z,19.20
2018-01-19T08:24:54.055Z,18.77
2018-01-19T08:27:21.793Z,19.40
2018-01-19T08:29:51.731Z,17.47
2018-01-19T08:32:19.626Z,22.23
2018-01-19T08:34:48.136Z,21.70
2018-01-19T08:37:15.777Z,20.30
2018-01-19T08:39:43.767Z,19.83
2018-01-19T08:42:11.622Z,20.27
2018-01-19T08:44:39.606Z,21.47
2018-01-19T08:47:08.572Z,20.63
2018-01-19T08:49:36.342Z,20.23
2018-01-19T08:52:04.390Z,19.80
2018-01-19T08:54:32.574Z,20.73
2018-01-19T08:57:01.714Z,18.70
2018-01-19T08:59:30.071Z,18.73
2018-01-19T09:01:58.129Z,17.97
2018-01-19T09:04:26.196Z,18.87
2018-01-19T09:06:54.381Z,19.50
2018-01-19T09:09:22.992Z,18.60
2018-01-19T09:11:51.260Z,18.90
2018-01-19T09:14:18.887Z,19.87
2018-01-19T09:16:47.180Z,22.47
2018-01-19T09:19:14.831Z,20.23
2018-01-19T09:21:42.560Z,21.73
2018-01-19T09:24:10.275Z,24.37
2018-01-19T09:26:37.958Z,22.00
2018-01-19T09:29:08.691Z,20.90
2018-01-19T09:31:41.462Z,21.77
2018-01-19T09:34:09.756Z,20.20
2018-01-19T09:36:37.754Z,21.07
2018-01-19T09:39:05.435Z,22.50
2018-01-19T09:41:33.194Z,19.77
2018-01-19T09:44:01.924Z,22.20
2018-01-19T09:46:29.541Z,22.10
2018-01-19T09:48:58.196Z,22.83
2018-01-19T09:51:25.912Z,22.47
2018-01-19T09:54:18.635Z,22.00
2018-01-19T17:42:53.433Z,65.70
2018-01-19T17:45:21.282Z,51.65
2018-01-19T17:47:49.706Z,51.65
2018-01-19T17:50:18.188Z,56.17
2018-01-19T17:52:46.305Z,59.75
2018-01-19T17:55:14.381Z,69.55
2018-01-19T17:57:43.197Z,70.32
2018-01-19T18:00:15.122Z,74.18
2018-01-19T18:02:43.693Z,69.18
2018-01-19T18:05:11.397Z,64.25
2018-01-19T18:07:40.628Z,66.28
2018-01-19T18:10:10.214Z,59.00
2018-01-19T18:12:39.447Z,63.33
2018-01-19T18:15:07.689Z,71.93
2018-01-19T18:17:42.409Z,73.65
2018-01-19T18:20:12.178Z,60.60
2018-01-19T18:22:44.827Z,78.28
2018-01-19T18:28:19.516Z,58.00
2018-01-19T18:37:56.310Z,45.40
2018-01-19T18:40:29.203Z,49.13
2018-01-19T18:42:57.396Z,69.75
2018-01-19T18:45:36.838Z,73.75
2018-01-19T18:48:08.359Z,67.20
2018-01-19T18:50:38.825Z,67.62
2018-01-19T18:53:09.373Z,62.03
2018-01-19T18:55:41.591Z,44.80
2018-01-19T18:58:10.646Z,46.42
2018-01-19T19:00:43.581Z,47.17
2018-01-19T19:09:32.787Z,28.30
2018-01-19T19:14:50.282Z,32.00
2018-01-19T19:17:21.041Z,39.10
2018-01-19T19:19:53.027Z,32.83
2018-01-19T19:22:20.773Z,32.33
2018-01-19T19:24:52.220Z,31.10
2018-01-19T19:27:22.829Z,54.72
2018-01-19T19:29:51.121Z,62.03
2018-01-19T19:32:22.862Z,78.60
2018-01-19T19:35:07.412Z,102.38
